sensor_id;sensor_type;location;lat;lon;timestamp;pressure;altitude;pressure_sealevel;temperature;humidity
18137;BME280;9194;42.632;23.298;2023-12-20T00:03:11;92935.75;;;-1.11;100.00
18137;BME280;9194;42.632;23.298;2023-12-20T00:08:12;92915.13;;;-1.09;100.00
18137;BME280;9194;42.632;23.298;2023-12-20T00:13:13;92912.44;;;-1.08;100.00
18137;BME280;9194;42.632;23.298;2023-12-20T00:18:14;92907.34;;;-1.08;100.00
18137;BME280;9194;42.632;23.298;2023-12-20T00:23:16;92901.88;;;-1.13;100.00
18137;BME280;9194;42.632;23.298;2023-12-20T00:28:17;92903.97;;;-1.08;100.00
18137;BME280;9194;42.632;23.298;2023-12-20T00:33:18;92884.22;;;-1.06;100.00
18137;BME280;9194;42.632;23.298;2023-12-20T00:38:20;92871.13;;;-1.03;100.00
18137;BME280;9194;42.632;23.298;2023-12-20T00:43:21;92867.72;;;-1.12;100.00
18137;BME280;9194;42.632;23.298;2023-12-20T00:48:22;92865.75;;;-1.18;100.00
18137;BME280;9194;42.632;23.298;2023-12-20T00:53:23;92861.34;;;-1.26;100.00
18137;BME280;9194;42.632;23.298;2023-12-20T00:58:25;92859.25;;;-1.30;100.00
18137;BME280;9194;42.632;23.298;2023-12-20T01:03:27;92845.00;;;-1.33;100.00
18137;BME280;9194;42.632;23.298;2023-12-20T01:08:28;92846.34;;;-1.29;100.00
18137;BME280;9194;42.632;23.298;2023-12-20T01:13:29;92845.31;;;-1.36;100.00
18137;BME280;9194;42.632;23.298;2023-12-20T01:18:31;92851.22;;;-1.35;100.00
18137;BME280;9194;42.632;23.298;2023-12-20T01:23:32;92836.75;;;-1.44;100.00
18137;BME280;9194;42.632;23.298;2023-12-20T01:28:33;92817.13;;;-1.44;100.00
18137;BME280;9194;42.632;23.298;2023-12-20T01:33:35;92819.56;;;-1.42;100.00
18137;BME280;9194;42.632;23.298;2023-12-20T01:38:36;92808.66;;;-1.44;100.00
18137;BME280;9194;42.632;23.298;2023-12-20T01:43:37;92799.94;;;-1.42;100.00
18137;BME280;9194;42.632;23.298;2023-12-20T01:48:39;92793.88;;;-1.41;100.00
18137;BME280;9194;42.632;23.298;2023-12-20T01:53:41;92782.66;;;-1.30;100.00
18137;BME280;9194;42.632;23.298;2023-12-20T01:58:45;92781.97;;;-1.32;100.00
18137;BME280;9194;42.632;23.298;2023-12-20T02:03:48;92767.38;;;-1.40;100.00
18137;BME280;9194;42.632;23.298;2023-12-20T02:08:50;92767.69;;;-1.43;100.00
18137;BME280;9194;42.632;23.298;2023-12-20T02:13:52;92760.84;;;-1.42;100.00
18137;BME280;9194;42.632;23.298;2023-12-20T02:18:54;92755.66;;;-1.50;100.00
18137;BME280;9194;42.632;23.298;2023-12-20T02:23:55;92758.88;;;-1.48;100.00
18137;BME280;9194;42.632;23.298;2023-12-20T02:28:56;92750.50;;;-1.41;100.00
18137;BME280;9194;42.632;23.298;2023-12-20T02:33:57;92735.44;;;-1.44;100.00
18137;BME280;9194;42.632;23.298;2023-12-20T02:38:59;92733.56;;;-1.42;100.00
18137;BME280;9194;42.632;23.298;2023-12-20T02:44:01;92724.06;;;-1.49;100.00
18137;BME280;9194;42.632;23.298;2023-12-20T02:49:03;92718.47;;;-1.53;100.00
18137;BME280;9194;42.632;23.298;2023-12-20T02:54:04;92728.38;;;-1.50;100.00
18137;BME280;9194;42.632;23.298;2023-12-20T02:59:06;92730.44;;;-1.53;100.00
18137;BME280;9194;42.632;23.298;2023-12-20T03:04:09;92727.53;;;-1.58;100.00
18137;BME280;9194;42.632;23.298;2023-12-20T03:09:10;92716.78;;;-1.62;100.00
18137;BME280;9194;42.632;23.298;2023-12-20T03:14:12;92722.25;;;-1.57;100.00
18137;BME280;9194;42.632;23.298;2023-12-20T03:19:13;92713.25;;;-1.69;100.00
18137;BME280;9194;42.632;23.298;2023-12-20T03:24:14;92715.56;;;-1.76;100.00
18137;BME280;9194;42.632;23.298;2023-12-20T03:29:15;92707.75;;;-1.74;100.00
18137;BME280;9194;42.632;23.298;2023-12-20T03:34:16;92707.34;;;-1.70;100.00
18137;BME280;9194;42.632;23.298;2023-12-20T03:39:18;92700.09;;;-1.74;100.00
18137;BME280;9194;42.632;23.298;2023-12-20T03:44:40;92708.06;;;-1.77;100.00
18137;BME280;9194;42.632;23.298;2023-12-20T03:49:42;92706.44;;;-1.78;100.00
18137;BME280;9194;42.632;23.298;2023-12-20T03:54:43;92705.59;;;-1.69;100.00
18137;BME280;9194;42.632;23.298;2023-12-20T03:59:45;92694.34;;;-1.76;100.00
18137;BME280;9194;42.632;23.298;2023-12-20T04:04:46;92689.59;;;-1.71;100.00
18137;BME280;9194;42.632;23.298;2023-12-20T04:09:47;92684.06;;;-1.67;100.00
18137;BME280;9194;42.632;23.298;2023-12-20T04:14:49;92681.59;;;-1.76;100.00
18137;BME280;9194;42.632;23.298;2023-12-20T04:19:50;92680.94;;;-1.78;100.00
18137;BME280;9194;42.632;23.298;2023-12-20T04:24:52;92670.38;;;-1.83;100.00
18137;BME280;9194;42.632;23.298;2023-12-20T04:29:53;92677.22;;;-1.66;100.00
18137;BME280;9194;42.632;23.298;2023-12-20T04:34:54;92655.78;;;-1.73;100.00
18137;BME280;9194;42.632;23.298;2023-12-20T04:39:55;92656.00;;;-1.67;100.00
18137;BME280;9194;42.632;23.298;2023-12-20T04:44:57;92648.81;;;-1.63;100.00
18137;BME280;9194;42.632;23.298;2023-12-20T04:49:58;92653.22;;;-1.73;100.00
18137;BME280;9194;42.632;23.298;2023-12-20T04:54:59;92647.38;;;-1.66;100.00
18137;BME280;9194;42.632;23.298;2023-12-20T05:00:01;92638.03;;;-1.57;100.00
18137;BME280;9194;42.632;23.298;2023-12-20T05:05:02;92642.63;;;-1.60;100.00
18137;BME280;9194;42.632;23.298;2023-12-20T05:10:04;92630.81;;;-1.61;100.00
18137;BME280;9194;42.632;23.298;2023-12-20T05:15:06;92631.41;;;-1.68;100.00
18137;BME280;9194;42.632;23.298;2023-12-20T05:20:08;92630.34;;;-1.65;100.00
18137;BME280;9194;42.632;23.298;2023-12-20T05:25:09;92613.66;;;-1.77;100.00
18137;BME280;9194;42.632;23.298;2023-12-20T05:30:11;92611.69;;;-1.83;100.00
18137;BME280;9194;42.632;23.298;2023-12-20T05:35:12;92609.81;;;-1.81;100.00
18137;BME280;9194;42.632;23.298;2023-12-20T05:40:13;92593.97;;;-1.85;100.00
18137;BME280;9194;42.632;23.298;2023-12-20T05:45:15;92596.84;;;-1.88;100.00
18137;BME280;9194;42.632;23.298;2023-12-20T05:50:16;92602.09;;;-1.89;100.00
18137;BME280;9194;42.632;23.298;2023-12-20T05:55:17;92590.56;;;-1.93;100.00
18137;BME280;9194;42.632;23.298;2023-12-20T06:00:18;92578.78;;;-1.94;100.00
18137;BME280;9194;42.632;23.298;2023-12-20T06:05:19;92580.88;;;-1.90;100.00
18137;BME280;9194;42.632;23.298;2023-12-20T06:10:21;92582.56;;;-1.81;100.00
18137;BME280;9194;42.632;23.298;2023-12-20T06:15:23;92576.41;;;-1.70;100.00
18137;BME280;9194;42.632;23.298;2023-12-20T06:20:24;92585.69;;;-1.61;100.00
18137;BME280;9194;42.632;23.298;2023-12-20T06:25:25;92587.84;;;-1.48;100.00
18137;BME280;9194;42.632;23.298;2023-12-20T06:30:27;92593.16;;;-1.42;100.00
18137;BME280;9194;42.632;23.298;2023-12-20T06:35:28;92581.88;;;-1.31;100.00
18137;BME280;9194;42.632;23.298;2023-12-20T06:40:29;92580.22;;;-1.14;100.00
18137;BME280;9194;42.632;23.298;2023-12-20T06:45:31;92571.19;;;-1.01;100.00
18137;BME280;9194;42.632;23.298;2023-12-20T06:50:32;92568.53;;;-0.83;100.00
18137;BME280;9194;42.632;23.298;2023-12-20T06:55:35;92557.88;;;-0.62;100.00
18137;BME280;9194;42.632;23.298;2023-12-20T07:00:37;92558.72;;;-0.46;100.00
18137;BME280;9194;42.632;23.298;2023-12-20T07:05:39;92555.56;;;-0.23;100.00
18137;BME280;9194;42.632;23.298;2023-12-20T07:10:41;92548.38;;;-0.12;100.00
18137;BME280;9194;42.632;23.298;2023-12-20T07:15:42;92557.81;;;-0.04;100.00
18137;BME280;9194;42.632;23.298;2023-12-20T07:20:44;92553.03;;;0.09;100.00
18137;BME280;9194;42.632;23.298;2023-12-20T07:25:45;92541.16;;;0.32;100.00
18137;BME280;9194;42.632;23.298;2023-12-20T07:30:46;92536.00;;;0.49;100.00
18137;BME280;9194;42.632;23.298;2023-12-20T07:35:47;92534.91;;;0.43;100.00
18137;BME280;9194;42.632;23.298;2023-12-20T07:40:48;92537.16;;;0.38;100.00
18137;BME280;9194;42.632;23.298;2023-12-20T07:45:50;92524.19;;;0.39;100.00
18137;BME280;9194;42.632;23.298;2023-12-20T07:50:51;92535.41;;;0.47;100.00
18137;BME280;9194;42.632;23.298;2023-12-20T07:55:53;92524.13;;;0.72;100.00
18137;BME280;9194;42.632;23.298;2023-12-20T08:00:55;92519.72;;;0.97;100.00
18137;BME280;9194;42.632;23.298;2023-12-20T08:05:56;92522.59;;;1.33;100.00
18137;BME280;9194;42.632;23.298;2023-12-20T08:11:00;92513.56;;;1.90;100.00
18137;BME280;9194;42.632;23.298;2023-12-20T08:16:01;92496.50;;;2.35;100.00
18137;BME280;9194;42.632;23.298;2023-12-20T08:21:04;92494.78;;;2.79;100.00
18137;BME280;9194;42.632;23.298;2023-12-20T08:26:08;92488.28;;;2.83;100.00
18137;BME280;9194;42.632;23.298;2023-12-20T08:31:14;92489.09;;;2.55;100.00
18137;BME280;9194;42.632;23.298;2023-12-20T08:36:16;92468.06;;;2.80;100.00
18137;BME280;9194;42.632;23.298;2023-12-20T08:41:18;92459.41;;;2.67;100.00
18137;BME280;9194;42.632;23.298;2023-12-20T08:46:21;92466.91;;;2.39;100.00
18137;BME280;9194;42.632;23.298;2023-12-20T08:51:22;92461.72;;;2.62;100.00
18137;BME280;9194;42.632;23.298;2023-12-20T08:56:26;92461.69;;;2.76;100.00
18137;BME280;9194;42.632;23.298;2023-12-20T09:01:27;92457.75;;;3.10;100.00
18137;BME280;9194;42.632;23.298;2023-12-20T09:06:28;92427.84;;;3.23;100.00
18137;BME280;9194;42.632;23.298;2023-12-20T09:11:30;92408.31;;;3.29;100.00
18137;BME280;9194;42.632;23.298;2023-12-20T09:16:31;92411.13;;;3.55;100.00
18137;BME280;9194;42.632;23.298;2023-12-20T09:21:32;92374.16;;;3.35;100.00
18137;BME280;9194;42.632;23.298;2023-12-20T09:26:33;92368.38;;;3.54;100.00
18137;BME280;9194;42.632;23.298;2023-12-20T09:31:36;92352.66;;;3.98;100.00
18137;BME280;9194;42.632;23.298;2023-12-20T09:36:38;92350.59;;;4.49;100.00
18137;BME280;9194;42.632;23.298;2023-12-20T09:41:45;92337.06;;;4.82;100.00
18137;BME280;9194;42.632;23.298;2023-12-20T09:46:49;92331.31;;;4.39;100.00
18137;BME280;9194;42.632;23.298;2023-12-20T09:51:53;92326.75;;;4.34;100.00
18137;BME280;9194;42.632;23.298;2023-12-20T09:56:54;92320.09;;;4.12;100.00
18137;BME280;9194;42.632;23.298;2023-12-20T10:01:56;92311.19;;;4.62;100.00
18137;BME280;9194;42.632;23.298;2023-12-20T10:07:02;92311.25;;;4.75;100.00
18137;BME280;9194;42.632;23.298;2023-12-20T10:12:05;92303.66;;;4.54;100.00
18137;BME280;9194;42.632;23.298;2023-12-20T10:17:07;92287.72;;;4.44;100.00
18137;BME280;9194;42.632;23.298;2023-12-20T10:22:10;92285.88;;;4.31;100.00
18137;BME280;9194;42.632;23.298;2023-12-20T10:27:11;92286.47;;;4.27;100.00
18137;BME280;9194;42.632;23.298;2023-12-20T10:32:26;92269.41;;;4.19;100.00
18137;BME280;9194;42.632;23.298;2023-12-20T10:37:27;92257.06;;;4.14;100.00
18137;BME280;9194;42.632;23.298;2023-12-20T10:42:29;92243.44;;;4.21;100.00
18137;BME280;9194;42.632;23.298;2023-12-20T10:47:32;92253.28;;;4.04;100.00
18137;BME280;9194;42.632;23.298;2023-12-20T10:52:34;92240.13;;;3.92;100.00
18137;BME280;9194;42.632;23.298;2023-12-20T11:17:10;92206.66;;;3.51;100.00
18137;BME280;9194;42.632;23.298;2023-12-20T11:22:14;92192.00;;;3.52;100.00
18137;BME280;9194;42.632;23.298;2023-12-20T11:27:15;92186.50;;;3.61;100.00
18137;BME280;9194;42.632;23.298;2023-12-20T11:37:30;92158.72;;;3.91;100.00
18137;BME280;9194;42.632;23.298;2023-12-20T11:42:45;92150.47;;;4.09;100.00
18137;BME280;9194;42.632;23.298;2023-12-20T11:47:48;92142.59;;;4.24;100.00
18137;BME280;9194;42.632;23.298;2023-12-20T11:52:55;92136.09;;;4.41;100.00
18137;BME280;9194;42.632;23.298;2023-12-20T11:57:56;92123.03;;;4.69;100.00
18137;BME280;9194;42.632;23.298;2023-12-20T12:02:58;92105.38;;;4.79;100.00
18137;BME280;9194;42.632;23.298;2023-12-20T12:08:00;92105.38;;;5.12;100.00
18137;BME280;9194;42.632;23.298;2023-12-20T12:13:01;92091.22;;;5.41;100.00
18137;BME280;9194;42.632;23.298;2023-12-20T12:18:04;92080.22;;;5.65;100.00
18137;BME280;9194;42.632;23.298;2023-12-20T12:23:06;92076.25;;;5.62;100.00
18137;BME280;9194;42.632;23.298;2023-12-20T12:28:07;92071.75;;;5.38;100.00
18137;BME280;9194;42.632;23.298;2023-12-20T12:33:09;92075.22;;;4.99;100.00
18137;BME280;9194;42.632;23.298;2023-12-20T12:38:11;92078.22;;;4.50;100.00
18137;BME280;9194;42.632;23.298;2023-12-20T12:43:12;92078.00;;;4.12;100.00
18137;BME280;9194;42.632;23.298;2023-12-20T12:48:14;92067.63;;;3.92;100.00
18137;BME280;9194;42.632;23.298;2023-12-20T12:53:15;92065.03;;;3.79;100.00
18137;BME280;9194;42.632;23.298;2023-12-20T12:58:16;92075.47;;;3.58;100.00
18137;BME280;9194;42.632;23.298;2023-12-20T13:03:18;92067.91;;;3.50;100.00
18137;BME280;9194;42.632;23.298;2023-12-20T13:08:19;92069.09;;;3.47;100.00
18137;BME280;9194;42.632;23.298;2023-12-20T13:13:20;92070.47;;;3.43;100.00
18137;BME280;9194;42.632;23.298;2023-12-20T13:18:22;92065.84;;;3.32;100.00
18137;BME280;9194;42.632;23.298;2023-12-20T13:34:30;92045.69;;;2.95;100.00
18137;BME280;9194;42.632;23.298;2023-12-20T13:39:31;92050.00;;;2.87;100.00
18137;BME280;9194;42.632;23.298;2023-12-20T13:44:33;92051.69;;;2.74;100.00
18137;BME280;9194;42.632;23.298;2023-12-20T13:49:35;92047.78;;;2.78;100.00
18137;BME280;9194;42.632;23.298;2023-12-20T13:54:37;92044.03;;;2.80;100.00
18137;BME280;9194;42.632;23.298;2023-12-20T13:59:39;92044.97;;;2.73;100.00
18137;BME280;9194;42.632;23.298;2023-12-20T14:04:40;92050.91;;;2.73;100.00
18137;BME280;9194;42.632;23.298;2023-12-20T14:09:41;92046.31;;;2.69;100.00
18137;BME280;9194;42.632;23.298;2023-12-20T14:23:14;92027.66;;;2.54;100.00
18137;BME280;9194;42.632;23.298;2023-12-20T14:28:16;92023.03;;;2.42;100.00
18137;BME280;9194;42.632;23.298;2023-12-20T14:33:17;92020.97;;;2.31;100.00
18137;BME280;9194;42.632;23.298;2023-12-20T14:38:20;92037.69;;;2.21;100.00
18137;BME280;9194;42.632;23.298;2023-12-20T14:43:22;92040.31;;;2.06;100.00
18137;BME280;9194;42.632;23.298;2023-12-20T14:48:23;92049.66;;;1.92;100.00
18137;BME280;9194;42.632;23.298;2023-12-20T14:53:26;92018.78;;;1.79;100.00
18137;BME280;9194;42.632;23.298;2023-12-20T14:58:27;92025.97;;;1.69;100.00
18137;BME280;9194;42.632;23.298;2023-12-20T15:03:30;92037.31;;;1.60;100.00
18137;BME280;9194;42.632;23.298;2023-12-20T15:08:31;92030.22;;;1.41;100.00
18137;BME280;9194;42.632;23.298;2023-12-20T15:13:32;92043.16;;;1.33;100.00
18137;BME280;9194;42.632;23.298;2023-12-20T15:18:34;92044.41;;;1.22;100.00
18137;BME280;9194;42.632;23.298;2023-12-20T15:23:35;92027.00;;;1.17;100.00
18137;BME280;9194;42.632;23.298;2023-12-20T15:28:36;92031.25;;;1.10;100.00
18137;BME280;9194;42.632;23.298;2023-12-20T15:33:38;92038.75;;;1.27;100.00
18137;BME280;9194;42.632;23.298;2023-12-20T15:38:40;92040.50;;;1.26;100.00
18137;BME280;9194;42.632;23.298;2023-12-20T15:43:41;92034.84;;;1.31;100.00
18137;BME280;9194;42.632;23.298;2023-12-20T15:48:42;92044.19;;;1.38;100.00
18137;BME280;9194;42.632;23.298;2023-12-20T15:53:43;92042.53;;;1.31;100.00
18137;BME280;9194;42.632;23.298;2023-12-20T15:58:45;92047.66;;;1.31;100.00
18137;BME280;9194;42.632;23.298;2023-12-20T16:03:48;92066.72;;;1.43;100.00
18137;BME280;9194;42.632;23.298;2023-12-20T16:08:50;92049.41;;;1.45;100.00
18137;BME280;9194;42.632;23.298;2023-12-20T16:13:51;92063.63;;;1.47;100.00
18137;BME280;9194;42.632;23.298;2023-12-20T16:18:52;92043.66;;;1.43;100.00
18137;BME280;9194;42.632;23.298;2023-12-20T16:23:53;92039.25;;;1.37;100.00
18137;BME280;9194;42.632;23.298;2023-12-20T16:28:55;92039.78;;;1.32;100.00
18137;BME280;9194;42.632;23.298;2023-12-20T16:33:56;92035.47;;;1.33;100.00
18137;BME280;9194;42.632;23.298;2023-12-20T16:38:57;92027.06;;;1.39;100.00
18137;BME280;9194;42.632;23.298;2023-12-20T16:43:58;92033.50;;;1.35;100.00
18137;BME280;9194;42.632;23.298;2023-12-20T16:48:59;92023.59;;;1.32;100.00
18137;BME280;9194;42.632;23.298;2023-12-20T16:54:00;92019.28;;;1.32;100.00
18137;BME280;9194;42.632;23.298;2023-12-20T16:59:02;92026.53;;;1.29;100.00
18137;BME280;9194;42.632;23.298;2023-12-20T17:04:03;92031.22;;;1.25;100.00
18137;BME280;9194;42.632;23.298;2023-12-20T17:09:05;92024.44;;;1.17;100.00
18137;BME280;9194;42.632;23.298;2023-12-20T17:14:06;92017.91;;;1.15;100.00
18137;BME280;9194;42.632;23.298;2023-12-20T17:19:09;92017.44;;;1.11;100.00
18137;BME280;9194;42.632;23.298;2023-12-20T17:24:11;92024.00;;;0.99;100.00
18137;BME280;9194;42.632;23.298;2023-12-20T17:29:12;92036.94;;;0.91;100.00
18137;BME280;9194;42.632;23.298;2023-12-20T17:34:13;92041.16;;;0.84;100.00
18137;BME280;9194;42.632;23.298;2023-12-20T17:39:14;92045.06;;;0.80;100.00
18137;BME280;9194;42.632;23.298;2023-12-20T17:44:15;92038.19;;;0.80;100.00
18137;BME280;9194;42.632;23.298;2023-12-20T17:49:17;92032.09;;;0.81;100.00
18137;BME280;9194;42.632;23.298;2023-12-20T17:54:21;92029.69;;;0.80;100.00
18137;BME280;9194;42.632;23.298;2023-12-20T17:59:23;92027.91;;;0.66;100.00
18137;BME280;9194;42.632;23.298;2023-12-20T18:04:24;92023.59;;;0.66;100.00
18137;BME280;9194;42.632;23.298;2023-12-20T18:09:26;92037.72;;;0.92;100.00
18137;BME280;9194;42.632;23.298;2023-12-20T18:14:28;92044.72;;;0.68;100.00
18137;BME280;9194;42.632;23.298;2023-12-20T18:19:30;92049.53;;;0.49;100.00
18137;BME280;9194;42.632;23.298;2023-12-20T18:24:32;92034.97;;;0.34;100.00
18137;BME280;9194;42.632;23.298;2023-12-20T18:29:33;92032.59;;;0.33;100.00
18137;BME280;9194;42.632;23.298;2023-12-20T18:34:34;92032.69;;;0.39;100.00
18137;BME280;9194;42.632;23.298;2023-12-20T18:39:37;92036.84;;;0.40;100.00
18137;BME280;9194;42.632;23.298;2023-12-20T18:44:41;92043.94;;;0.30;100.00
18137;BME280;9194;42.632;23.298;2023-12-20T18:49:42;92030.19;;;0.31;100.00
18137;BME280;9194;42.632;23.298;2023-12-20T18:54:43;92038.13;;;0.36;100.00
18137;BME280;9194;42.632;23.298;2023-12-20T18:59:44;92036.53;;;0.35;100.00
18137;BME280;9194;42.632;23.298;2023-12-20T19:04:45;92040.53;;;0.38;100.00
18137;BME280;9194;42.632;23.298;2023-12-20T19:09:47;92043.44;;;0.35;100.00
18137;BME280;9194;42.632;23.298;2023-12-20T19:14:48;92054.66;;;0.34;100.00
18137;BME280;9194;42.632;23.298;2023-12-20T19:19:49;92043.63;;;0.33;100.00
18137;BME280;9194;42.632;23.298;2023-12-20T19:24:50;92050.34;;;0.34;100.00
18137;BME280;9194;42.632;23.298;2023-12-20T19:29:51;92060.03;;;0.39;100.00
18137;BME280;9194;42.632;23.298;2023-12-20T19:34:59;92051.31;;;0.33;100.00
18137;BME280;9194;42.632;23.298;2023-12-20T19:40:00;92044.31;;;0.27;100.00
18137;BME280;9194;42.632;23.298;2023-12-20T19:45:04;92036.00;;;0.25;100.00
18137;BME280;9194;42.632;23.298;2023-12-20T19:50:05;92037.16;;;0.23;100.00
18137;BME280;9194;42.632;23.298;2023-12-20T19:55:07;92041.50;;;0.22;100.00
18137;BME280;9194;42.632;23.298;2023-12-20T20:00:09;92026.81;;;0.16;100.00
18137;BME280;9194;42.632;23.298;2023-12-20T20:05:14;92028.13;;;0.12;100.00
18137;BME280;9194;42.632;23.298;2023-12-20T20:10:15;92035.31;;;0.31;100.00
18137;BME280;9194;42.632;23.298;2023-12-20T20:15:16;92027.09;;;0.21;100.00
18137;BME280;9194;42.632;23.298;2023-12-20T20:20:17;92022.84;;;0.14;100.00
18137;BME280;9194;42.632;23.298;2023-12-20T20:25:18;92024.69;;;0.05;100.00
18137;BME280;9194;42.632;23.298;2023-12-20T20:30:19;92020.53;;;0.04;100.00
18137;BME280;9194;42.632;23.298;2023-12-20T20:35:21;92021.13;;;0.06;100.00
18137;BME280;9194;42.632;23.298;2023-12-20T20:40:22;92019.69;;;0.12;100.00
18137;BME280;9194;42.632;23.298;2023-12-20T20:45:23;92009.94;;;0.07;100.00
18137;BME280;9194;42.632;23.298;2023-12-20T20:50:24;92027.78;;;0.15;100.00
18137;BME280;9194;42.632;23.298;2023-12-20T20:55:26;92016.47;;;0.10;100.00
18137;BME280;9194;42.632;23.298;2023-12-20T21:00:27;92012.28;;;0.17;100.00
18137;BME280;9194;42.632;23.298;2023-12-20T21:05:29;92010.41;;;0.25;100.00
18137;BME280;9194;42.632;23.298;2023-12-20T21:10:30;92021.28;;;0.27;100.00
18137;BME280;9194;42.632;23.298;2023-12-20T21:15:32;92032.84;;;0.23;100.00
18137;BME280;9194;42.632;23.298;2023-12-20T21:20:33;92048.19;;;0.23;100.00
18137;BME280;9194;42.632;23.298;2023-12-20T21:25:35;92047.56;;;0.21;100.00
18137;BME280;9194;42.632;23.298;2023-12-20T21:30:37;92045.44;;;0.10;100.00
18137;BME280;9194;42.632;23.298;2023-12-20T21:35:38;92046.00;;;-0.03;100.00
18137;BME280;9194;42.632;23.298;2023-12-20T21:40:39;92036.50;;;-0.17;100.00
18137;BME280;9194;42.632;23.298;2023-12-20T21:45:41;92033.84;;;-0.23;100.00
18137;BME280;9194;42.632;23.298;2023-12-20T21:50:43;92015.50;;;-0.27;100.00
18137;BME280;9194;42.632;23.298;2023-12-20T21:55:44;92019.28;;;-0.23;100.00
18137;BME280;9194;42.632;23.298;2023-12-20T22:00:46;92023.00;;;-0.25;100.00
18137;BME280;9194;42.632;23.298;2023-12-20T22:05:47;92025.78;;;-0.35;100.00
18137;BME280;9194;42.632;23.298;2023-12-20T22:10:49;92015.28;;;-0.40;100.00
18137;BME280;9194;42.632;23.298;2023-12-20T22:15:50;92020.25;;;-0.47;100.00
18137;BME280;9194;42.632;23.298;2023-12-20T22:20:52;92003.69;;;-0.51;100.00
18137;BME280;9194;42.632;23.298;2023-12-20T22:25:54;91993.22;;;-0.64;100.00
18137;BME280;9194;42.632;23.298;2023-12-20T22:30:55;92011.75;;;-0.62;100.00
18137;BME280;9194;42.632;23.298;2023-12-20T22:35:56;92003.13;;;-0.61;100.00
18137;BME280;9194;42.632;23.298;2023-12-20T22:40:57;91995.97;;;-0.65;100.00
18137;BME280;9194;42.632;23.298;2023-12-20T22:45:59;91995.78;;;-0.64;100.00
18137;BME280;9194;42.632;23.298;2023-12-20T22:51:00;92003.97;;;-0.68;100.00
18137;BME280;9194;42.632;23.298;2023-12-20T22:56:01;92000.03;;;-0.79;100.00
18137;BME280;9194;42.632;23.298;2023-12-20T23:01:02;92008.34;;;-0.77;100.00
18137;BME280;9194;42.632;23.298;2023-12-20T23:06:04;92003.03;;;-0.75;100.00
18137;BME280;9194;42.632;23.298;2023-12-20T23:11:06;91999.31;;;-0.88;100.00
18137;BME280;9194;42.632;23.298;2023-12-20T23:16:08;91992.63;;;-0.97;100.00
18137;BME280;9194;42.632;23.298;2023-12-20T23:21:09;91996.00;;;-0.96;100.00
18137;BME280;9194;42.632;23.298;2023-12-20T23:26:10;91994.69;;;-0.92;100.00
18137;BME280;9194;42.632;23.298;2023-12-20T23:31:22;92003.44;;;-0.87;100.00
18137;BME280;9194;42.632;23.298;2023-12-20T23:36:23;91996.91;;;-0.89;100.00
18137;BME280;9194;42.632;23.298;2023-12-20T23:41:25;91996.00;;;-0.96;100.00
18137;BME280;9194;42.632;23.298;2023-12-20T23:46:26;91993.88;;;-0.93;100.00
18137;BME280;9194;42.632;23.298;2023-12-20T23:51:27;91991.53;;;-0.94;100.00
18137;BME280;9194;42.632;23.298;2023-12-20T23:56:28;91987.50;;;-0.66;100.00
